SAS524 EKCH-ESSA
Flight info
| Callsign | SAS524 |
|---|---|
| Flight time | 0h 53m |
| Altitude | 35000 |
| Route | KEMAX N851 ROXEN DCT MIKNA N851 PELUP Z226 NILUG |
| Aircraft | A343/H-SDE2E3FGHIJ4J5M1RWXY/LB1D1 |
Departure
| Time | 2026-04-26 19:08 |
|---|---|
| Airport | Copenhagen Kastrup Airport (EKCH) |
Arrival
| Time | 2026-04-26 20:01 |
|---|---|
| Airport | Stockholm-Arlanda Airport (ESSA) |
| Time | Latitude | Longitude | Altitude | Speed | Heading |
|---|---|---|---|---|---|
| 2026-04-26 18:44 | 55.62432 | 12.65065 | 28 ft | 0 kts | 269° |
| 2026-04-26 18:54 | 55.62432 | 12.65067 | 28 ft | 2 kts | 269° |
| 2026-04-26 18:54 | 55.62433 | 12.65111 | 26 ft | 4 kts | 269° |
| 2026-04-26 18:55 | 55.62433 | 12.65154 | 26 ft | 4 kts | 265° |
| 2026-04-26 18:55 | 55.62440 | 12.65191 | 28 ft | 4 kts | 203° |
| 2026-04-26 18:55 | 55.62464 | 12.65192 | 28 ft | 4 kts | 168° |
| 2026-04-26 18:55 | 55.62485 | 12.65187 | 28 ft | 3 kts | 178° |
| 2026-04-26 18:56 | 55.62510 | 12.65185 | 28 ft | 2 kts | 178° |
| 2026-04-26 18:56 | 55.62513 | 12.65185 | 28 ft | 0 kts | 178° |
| 2026-04-26 18:59 | 55.62512 | 12.65185 | 28 ft | 1 kts | 178° |
| 2026-04-26 19:00 | 55.62491 | 12.65188 | 28 ft | 6 kts | 175° |
| 2026-04-26 19:00 | 55.62442 | 12.65197 | 28 ft | 8 kts | 176° |
| 2026-04-26 19:00 | 55.62377 | 12.65199 | 28 ft | 11 kts | 179° |
| 2026-04-26 19:00 | 55.62289 | 12.65201 | 28 ft | 13 kts | 180° |
| 2026-04-26 19:01 | 55.62199 | 12.65166 | 28 ft | 14 kts | 211° |
| 2026-04-26 19:01 | 55.62108 | 12.65064 | 28 ft | 17 kts | 212° |
| 2026-04-26 19:01 | 55.61995 | 12.64934 | 28 ft | 21 kts | 213° |
| 2026-04-26 19:01 | 55.61880 | 12.64803 | 27 ft | 16 kts | 213° |
| 2026-04-26 19:02 | 55.61787 | 12.64695 | 28 ft | 17 kts | 212° |
| 2026-04-26 19:02 | 55.61680 | 12.64579 | 28 ft | 19 kts | 213° |
| 2026-04-26 19:02 | 55.61565 | 12.64455 | 28 ft | 20 kts | 208° |
| 2026-04-26 19:02 | 55.61490 | 12.64364 | 28 ft | 20 kts | 217° |
| 2026-04-26 19:03 | 55.61335 | 12.64172 | 28 ft | 21 kts | 213° |
| 2026-04-26 19:03 | 55.61204 | 12.64019 | 28 ft | 24 kts | 213° |
| 2026-04-26 19:03 | 55.61056 | 12.63851 | 28 ft | 27 kts | 213° |
| 2026-04-26 19:03 | 55.60896 | 12.63667 | 28 ft | 27 kts | 213° |
| 2026-04-26 19:04 | 55.60738 | 12.63487 | 28 ft | 27 kts | 213° |
| 2026-04-26 19:04 | 55.60591 | 12.63296 | 28 ft | 26 kts | 220° |
| 2026-04-26 19:04 | 55.60486 | 12.63131 | 28 ft | 14 kts | 216° |
| 2026-04-26 19:04 | 55.60421 | 12.63132 | 28 ft | 5 kts | 147° |
| 2026-04-26 19:05 | 55.60415 | 12.63141 | 28 ft | 0 kts | 137° |
| 2026-04-26 19:05 | 55.60414 | 12.63143 | 28 ft | 2 kts | 136° |
| 2026-04-26 19:06 | 55.60381 | 12.63209 | 28 ft | 13 kts | 131° |
| 2026-04-26 19:06 | 55.60333 | 12.63308 | 30 ft | 6 kts | 126° |
| 2026-04-26 19:06 | 55.60339 | 12.63347 | 30 ft | 4 kts | 51° |
| 2026-04-26 19:06 | 55.60345 | 12.63355 | 30 ft | 0 kts | 41° |
| 2026-04-26 19:07 | 55.60347 | 12.63357 | 30 ft | 2 kts | 41° |
| 2026-04-26 19:07 | 55.60476 | 12.63558 | 28 ft | 53 kts | 41° |
| 2026-04-26 19:07 | 55.60892 | 12.64196 | 28 ft | 104 kts | 41° |
| 2026-04-26 19:07 | 55.61549 | 12.65210 | 27 ft | 145 kts | 41° |
| 2026-04-26 19:08 | 55.62369 | 12.66472 | 270 ft | 160 kts | 41° |
| 2026-04-26 19:08 | 55.63211 | 12.67776 | 768 ft | 161 kts | 41° |
| 2026-04-26 19:08 | 55.64073 | 12.69142 | 1058 ft | 175 kts | 41° |
| 2026-04-26 19:08 | 55.65028 | 12.70639 | 1270 ft | 191 kts | 41° |
| 2026-04-26 19:09 | 55.66082 | 12.72225 | 1482 ft | 208 kts | 39° |
| 2026-04-26 19:09 | 55.67248 | 12.73948 | 1738 ft | 228 kts | 39° |
| 2026-04-26 19:09 | 55.68510 | 12.75818 | 2051 ft | 244 kts | 39° |
| 2026-04-26 19:09 | 55.69841 | 12.77798 | 2506 ft | 254 kts | 40° |
| 2026-04-26 19:10 | 55.70740 | 12.79139 | 2884 ft | 257 kts | 40° |
| 2026-04-26 19:10 | 55.72116 | 12.81194 | 3481 ft | 260 kts | 40° |
| 2026-04-26 19:10 | 55.73508 | 12.83277 | 4097 ft | 263 kts | 40° |
| 2026-04-26 19:10 | 55.74914 | 12.85385 | 4699 ft | 266 kts | 40° |
| 2026-04-26 19:11 | 55.76308 | 12.87562 | 5305 ft | 268 kts | 41° |
| 2026-04-26 19:11 | 55.77714 | 12.89791 | 5922 ft | 271 kts | 41° |
| 2026-04-26 19:11 | 55.79124 | 12.92022 | 6526 ft | 273 kts | 41° |
| 2026-04-26 19:11 | 55.80552 | 12.94279 | 7113 ft | 276 kts | 41° |
| 2026-04-26 19:12 | 55.81993 | 12.96553 | 7710 ft | 278 kts | 41° |
| 2026-04-26 19:12 | 55.83445 | 12.98844 | 8280 ft | 281 kts | 41° |
| 2026-04-26 19:12 | 55.84914 | 13.01163 | 8828 ft | 283 kts | 41° |
| 2026-04-26 19:12 | 55.86391 | 13.03496 | 9398 ft | 286 kts | 41° |
| 2026-04-26 19:13 | 55.87883 | 13.05856 | 9928 ft | 288 kts | 41° |
| 2026-04-26 19:13 | 55.89394 | 13.08249 | 10324 ft | 297 kts | 41° |
| 2026-04-26 19:13 | 55.90954 | 13.10720 | 10553 ft | 310 kts | 41° |
| 2026-04-26 19:13 | 55.92600 | 13.13331 | 10798 ft | 323 kts | 41° |
| 2026-04-26 19:14 | 55.94311 | 13.16048 | 11024 ft | 336 kts | 41° |
| 2026-04-26 19:14 | 55.96085 | 13.18869 | 11238 ft | 348 kts | 41° |
| 2026-04-26 19:14 | 55.97921 | 13.21792 | 11444 ft | 359 kts | 41° |
| 2026-04-26 19:14 | 55.99190 | 13.23815 | 11587 ft | 365 kts | 41° |
| 2026-04-26 19:15 | 56.01731 | 13.27871 | 12029 ft | 373 kts | 41° |
| 2026-04-26 19:15 | 56.03672 | 13.30975 | 12436 ft | 376 kts | 41° |
| 2026-04-26 19:15 | 56.05626 | 13.34104 | 12843 ft | 379 kts | 41° |
| 2026-04-26 19:15 | 56.07595 | 13.37261 | 13253 ft | 381 kts | 41° |
| 2026-04-26 19:16 | 56.09577 | 13.40445 | 13661 ft | 384 kts | 41° |
| 2026-04-26 19:16 | 56.11570 | 13.43646 | 14057 ft | 386 kts | 41° |
| 2026-04-26 19:16 | 56.13643 | 13.46735 | 14463 ft | 388 kts | 38° |
| 2026-04-26 19:16 | 56.15798 | 13.49684 | 14850 ft | 391 kts | 36° |
| 2026-04-26 19:17 | 56.18001 | 13.52563 | 15253 ft | 393 kts | 35° |
| 2026-04-26 19:17 | 56.20232 | 13.55429 | 15647 ft | 395 kts | 35° |
| 2026-04-26 19:17 | 56.22476 | 13.58311 | 16047 ft | 397 kts | 35° |
| 2026-04-26 19:17 | 56.24697 | 13.61180 | 16427 ft | 400 kts | 36° |
| 2026-04-26 19:18 | 56.26954 | 13.64116 | 16821 ft | 402 kts | 36° |
| 2026-04-26 19:18 | 56.29222 | 13.67088 | 17206 ft | 404 kts | 36° |
| 2026-04-26 19:18 | 56.31499 | 13.70084 | 17612 ft | 407 kts | 36° |
| 2026-04-26 19:18 | 56.33792 | 13.73112 | 17996 ft | 409 kts | 36° |
| 2026-04-26 19:19 | 56.36093 | 13.76151 | 18399 ft | 411 kts | 36° |
| 2026-04-26 19:19 | 56.38404 | 13.79214 | 18799 ft | 414 kts | 37° |
| 2026-04-26 19:19 | 56.40711 | 13.82347 | 19201 ft | 416 kts | 38° |
| 2026-04-26 19:19 | 56.43014 | 13.85531 | 19621 ft | 419 kts | 38° |
| 2026-04-26 19:20 | 56.45338 | 13.88738 | 20017 ft | 421 kts | 38° |
| 2026-04-26 19:20 | 56.46891 | 13.90863 | 20305 ft | 423 kts | 38° |
| 2026-04-26 19:20 | 56.50051 | 13.95148 | 20799 ft | 426 kts | 37° |
| 2026-04-26 19:20 | 56.52441 | 13.98355 | 21192 ft | 429 kts | 36° |
| 2026-04-26 19:21 | 56.54864 | 14.01514 | 21590 ft | 431 kts | 35° |
| 2026-04-26 19:21 | 56.57312 | 14.04677 | 21981 ft | 433 kts | 35° |
| 2026-04-26 19:21 | 56.59772 | 14.07881 | 22347 ft | 436 kts | 36° |
| 2026-04-26 19:21 | 56.62229 | 14.11123 | 22709 ft | 438 kts | 36° |
| 2026-04-26 19:22 | 56.64691 | 14.14410 | 23064 ft | 441 kts | 36° |
| 2026-04-26 19:22 | 56.67106 | 14.17884 | 23413 ft | 443 kts | 40° |
| 2026-04-26 19:22 | 56.69430 | 14.21467 | 23785 ft | 446 kts | 40° |
| 2026-04-26 19:22 | 56.71790 | 14.25157 | 24119 ft | 448 kts | 40° |
| 2026-04-26 19:23 | 56.74147 | 14.28888 | 24474 ft | 451 kts | 41° |
| 2026-04-26 19:23 | 56.76513 | 14.32666 | 24840 ft | 453 kts | 41° |
| 2026-04-26 19:23 | 56.78878 | 14.36462 | 25204 ft | 455 kts | 41° |
| 2026-04-26 19:23 | 56.81259 | 14.40297 | 25558 ft | 458 kts | 41° |
| 2026-04-26 19:24 | 56.83656 | 14.44162 | 25880 ft | 460 kts | 41° |
| 2026-04-26 19:24 | 56.86058 | 14.48042 | 26207 ft | 462 kts | 41° |
| 2026-04-26 19:24 | 56.90897 | 14.55872 | 26836 ft | 467 kts | 41° |
| 2026-04-26 19:25 | 56.93312 | 14.59788 | 27137 ft | 469 kts | 41° |
| 2026-04-26 19:25 | 56.94942 | 14.62434 | 27336 ft | 470 kts | 41° |
| 2026-04-26 19:25 | 56.98222 | 14.67772 | 27709 ft | 473 kts | 41° |
| 2026-04-26 19:25 | 57.00691 | 14.71798 | 27990 ft | 475 kts | 41° |
| 2026-04-26 19:26 | 57.03131 | 14.75785 | 28261 ft | 477 kts | 41° |
| 2026-04-26 19:26 | 57.05649 | 14.79906 | 28532 ft | 479 kts | 41° |
| 2026-04-26 19:26 | 57.08106 | 14.83935 | 28775 ft | 481 kts | 41° |
| 2026-04-26 19:26 | 57.10605 | 14.88041 | 29034 ft | 483 kts | 41° |
| 2026-04-26 19:27 | 57.13111 | 14.92166 | 29280 ft | 485 kts | 41° |
| 2026-04-26 19:27 | 57.15625 | 14.96313 | 29587 ft | 485 kts | 41° |
| 2026-04-26 19:27 | 57.18133 | 15.00457 | 29942 ft | 484 kts | 41° |
| 2026-04-26 19:27 | 57.20634 | 15.04598 | 30281 ft | 483 kts | 41° |
| 2026-04-26 19:28 | 57.23132 | 15.08741 | 30589 ft | 482 kts | 41° |
| 2026-04-26 19:28 | 57.25624 | 15.12883 | 30878 ft | 482 kts | 42° |
| 2026-04-26 19:28 | 57.28113 | 15.17027 | 31190 ft | 481 kts | 42° |
| 2026-04-26 19:28 | 57.30595 | 15.21168 | 31486 ft | 481 kts | 42° |
| 2026-04-26 19:29 | 57.33076 | 15.25314 | 31781 ft | 480 kts | 42° |
| 2026-04-26 19:29 | 57.35551 | 15.29458 | 32074 ft | 479 kts | 42° |
| 2026-04-26 19:29 | 57.38022 | 15.33606 | 32342 ft | 479 kts | 42° |
| 2026-04-26 19:29 | 57.40489 | 15.37752 | 32617 ft | 478 kts | 42° |
| 2026-04-26 19:30 | 57.42950 | 15.41898 | 32902 ft | 477 kts | 42° |
| 2026-04-26 19:30 | 57.45407 | 15.46043 | 33152 ft | 477 kts | 42° |
| 2026-04-26 19:30 | 57.47824 | 15.50130 | 33389 ft | 477 kts | 42° |
| 2026-04-26 19:30 | 57.49480 | 15.52935 | 33571 ft | 476 kts | 42° |
| 2026-04-26 19:31 | 57.52720 | 15.58432 | 33897 ft | 476 kts | 42° |
| 2026-04-26 19:31 | 57.55159 | 15.62578 | 34122 ft | 475 kts | 42° |
| 2026-04-26 19:31 | 57.57600 | 15.66736 | 34348 ft | 475 kts | 42° |
| 2026-04-26 19:31 | 57.60036 | 15.70895 | 34591 ft | 474 kts | 42° |
| 2026-04-26 19:32 | 57.62466 | 15.75050 | 34791 ft | 474 kts | 42° |
| 2026-04-26 19:32 | 57.64894 | 15.79208 | 34970 ft | 475 kts | 42° |
| 2026-04-26 19:32 | 57.69783 | 15.87606 | 34986 ft | 477 kts | 42° |
| 2026-04-26 19:33 | 57.74650 | 15.96000 | 35003 ft | 475 kts | 43° |
| 2026-04-26 19:33 | 57.79508 | 16.04411 | 35001 ft | 475 kts | 43° |
| 2026-04-26 19:34 | 57.84335 | 16.12788 | 34999 ft | 475 kts | 43° |
| 2026-04-26 19:34 | 57.89184 | 16.21218 | 34999 ft | 475 kts | 43° |
| 2026-04-26 19:35 | 57.94033 | 16.29685 | 34919 ft | 476 kts | 43° |
| 2026-04-26 19:35 | 57.96454 | 16.33926 | 34705 ft | 475 kts | 43° |
| 2026-04-26 19:35 | 57.98869 | 16.38162 | 34453 ft | 475 kts | 43° |
| 2026-04-26 19:36 | 58.01290 | 16.42419 | 34230 ft | 475 kts | 43° |
| 2026-04-26 19:36 | 58.02889 | 16.45234 | 34052 ft | 475 kts | 43° |
| 2026-04-26 19:36 | 58.06115 | 16.50926 | 33715 ft | 475 kts | 43° |
| 2026-04-26 19:36 | 58.08533 | 16.55201 | 33467 ft | 476 kts | 43° |
| 2026-04-26 19:37 | 58.10948 | 16.59479 | 33207 ft | 476 kts | 43° |
| 2026-04-26 19:37 | 58.13362 | 16.63765 | 32526 ft | 478 kts | 43° |
| 2026-04-26 19:37 | 58.15764 | 16.68036 | 31764 ft | 481 kts | 43° |
| 2026-04-26 19:37 | 58.18209 | 16.72388 | 30999 ft | 484 kts | 43° |
| 2026-04-26 19:38 | 58.20668 | 16.76776 | 30219 ft | 486 kts | 43° |
| 2026-04-26 19:38 | 58.23131 | 16.81187 | 29441 ft | 488 kts | 43° |
| 2026-04-26 19:38 | 58.25596 | 16.85609 | 28726 ft | 488 kts | 43° |
| 2026-04-26 19:38 | 58.28065 | 16.90046 | 28076 ft | 487 kts | 43° |
| 2026-04-26 19:39 | 58.30505 | 16.94440 | 27445 ft | 478 kts | 43° |
| 2026-04-26 19:39 | 58.32866 | 16.98699 | 26903 ft | 460 kts | 43° |
| 2026-04-26 19:39 | 58.35177 | 17.02875 | 26355 ft | 456 kts | 43° |
| 2026-04-26 19:39 | 58.37470 | 17.07027 | 25829 ft | 454 kts | 43° |
| 2026-04-26 19:40 | 58.39750 | 17.11163 | 25265 ft | 451 kts | 43° |
| 2026-04-26 19:40 | 58.42014 | 17.15277 | 24734 ft | 448 kts | 43° |
| 2026-04-26 19:40 | 58.44266 | 17.19376 | 24193 ft | 446 kts | 43° |
| 2026-04-26 19:40 | 58.46500 | 17.23453 | 23654 ft | 443 kts | 43° |
| 2026-04-26 19:41 | 58.48723 | 17.27514 | 23116 ft | 441 kts | 43° |
| 2026-04-26 19:41 | 58.50930 | 17.31554 | 22574 ft | 438 kts | 44° |
| 2026-04-26 19:41 | 58.53120 | 17.35570 | 22035 ft | 435 kts | 44° |
| 2026-04-26 19:41 | 58.54567 | 17.38228 | 21676 ft | 434 kts | 44° |
| 2026-04-26 19:42 | 58.57465 | 17.43561 | 20958 ft | 430 kts | 44° |
| 2026-04-26 19:42 | 58.59615 | 17.47526 | 20415 ft | 427 kts | 44° |
| 2026-04-26 19:42 | 58.61747 | 17.51464 | 19899 ft | 424 kts | 44° |
| 2026-04-26 19:42 | 58.63838 | 17.55335 | 19366 ft | 422 kts | 44° |
| 2026-04-26 19:43 | 58.65939 | 17.59230 | 18851 ft | 419 kts | 44° |
| 2026-04-26 19:43 | 58.68027 | 17.63107 | 18319 ft | 416 kts | 44° |
| 2026-04-26 19:43 | 58.70096 | 17.66956 | 17810 ft | 413 kts | 44° |
| 2026-04-26 19:43 | 58.72150 | 17.70784 | 17286 ft | 410 kts | 44° |
| 2026-04-26 19:44 | 58.74188 | 17.74588 | 16788 ft | 407 kts | 44° |
| 2026-04-26 19:44 | 58.76211 | 17.78372 | 16281 ft | 404 kts | 44° |
| 2026-04-26 19:44 | 58.78214 | 17.82124 | 15781 ft | 401 kts | 44° |
| 2026-04-26 19:44 | 58.80209 | 17.85854 | 15277 ft | 397 kts | 43° |
| 2026-04-26 19:45 | 58.82381 | 17.89082 | 14825 ft | 393 kts | 30° |
| 2026-04-26 19:45 | 58.84774 | 17.91522 | 14493 ft | 388 kts | 26° |
| 2026-04-26 19:45 | 58.87199 | 17.93801 | 14148 ft | 387 kts | 25° |
| 2026-04-26 19:45 | 58.89620 | 17.96065 | 13784 ft | 385 kts | 25° |
| 2026-04-26 19:46 | 58.92064 | 17.98088 | 13509 ft | 380 kts | 18° |
| 2026-04-26 19:46 | 58.94527 | 17.99350 | 12869 ft | 383 kts | 12° |
| 2026-04-26 19:46 | 58.96375 | 18.00081 | 14037 ft | 381 kts | 8° |
| 2026-04-26 19:46 | 58.98749 | 18.00928 | 15297 ft | 320 kts | 5° |
| 2026-04-26 19:47 | 59.01001 | 18.01628 | 14637 ft | 332 kts | 6° |
| 2026-04-26 19:47 | 59.02511 | 18.02172 | 14047 ft | 336 kts | 7° |
| 2026-04-26 19:47 | 59.05621 | 18.03271 | 12796 ft | 342 kts | 6° |
| 2026-04-26 19:47 | 59.08728 | 18.04365 | 11893 ft | 340 kts | 7° |
| 2026-04-26 19:48 | 59.10294 | 18.04920 | 11530 ft | 336 kts | 7° |
| 2026-04-26 19:48 | 59.12576 | 18.05731 | 11195 ft | 331 kts | 7° |
| 2026-04-26 19:48 | 59.14812 | 18.06528 | 11117 ft | 319 kts | 7° |
| 2026-04-26 19:48 | 59.16930 | 18.07290 | 11119 ft | 301 kts | 6° |
| 2026-04-26 19:49 | 59.18933 | 18.08008 | 11118 ft | 285 kts | 6° |
| 2026-04-26 19:49 | 59.20830 | 18.08688 | 11127 ft | 271 kts | 6° |
| 2026-04-26 19:49 | 59.22623 | 18.09329 | 11119 ft | 262 kts | 6° |
| 2026-04-26 19:49 | 59.24407 | 18.09962 | 11125 ft | 261 kts | 6° |
| 2026-04-26 19:50 | 59.26201 | 18.10598 | 11127 ft | 261 kts | 6° |
| 2026-04-26 19:50 | 59.27988 | 18.11235 | 11089 ft | 260 kts | 6° |
| 2026-04-26 19:50 | 59.29751 | 18.11867 | 10821 ft | 257 kts | 6° |
| 2026-04-26 19:50 | 59.31527 | 18.12501 | 10421 ft | 261 kts | 6° |
| 2026-04-26 19:51 | 59.33317 | 18.13142 | 10046 ft | 263 kts | 6° |
| 2026-04-26 19:51 | 59.35121 | 18.13791 | 9647 ft | 263 kts | 6° |
| 2026-04-26 19:51 | 59.36914 | 18.14438 | 9319 ft | 262 kts | 7° |
| 2026-04-26 19:51 | 59.38693 | 18.15081 | 9000 ft | 260 kts | 7° |
| 2026-04-26 19:52 | 59.40468 | 18.15723 | 8646 ft | 258 kts | 7° |
| 2026-04-26 19:52 | 59.42212 | 18.16554 | 8321 ft | 259 kts | 15° |
| 2026-04-26 19:52 | 59.43903 | 18.17787 | 8005 ft | 258 kts | 17° |
| 2026-04-26 19:52 | 59.45569 | 18.19069 | 7662 ft | 257 kts | 18° |
| 2026-04-26 19:53 | 59.47207 | 18.20330 | 7337 ft | 256 kts | 18° |
| 2026-04-26 19:53 | 59.48885 | 18.21619 | 7011 ft | 254 kts | 18° |
| 2026-04-26 19:53 | 59.50530 | 18.22880 | 6678 ft | 253 kts | 18° |
| 2026-04-26 19:53 | 59.52145 | 18.24113 | 6351 ft | 252 kts | 18° |
| 2026-04-26 19:54 | 59.53772 | 18.25352 | 6093 ft | 247 kts | 17° |
| 2026-04-26 19:54 | 59.55366 | 18.26407 | 5939 ft | 236 kts | 10° |
| 2026-04-26 19:54 | 59.56919 | 18.27064 | 5754 ft | 220 kts | 8° |
| 2026-04-26 19:54 | 59.58374 | 18.27624 | 5408 ft | 209 kts | 7° |
| 2026-04-26 19:55 | 59.59786 | 18.28162 | 4969 ft | 205 kts | 7° |
| 2026-04-26 19:55 | 59.61176 | 18.28695 | 4521 ft | 202 kts | 7° |
| 2026-04-26 19:55 | 59.62550 | 18.29224 | 4112 ft | 200 kts | 8° |
| 2026-04-26 19:55 | 59.63909 | 18.29743 | 3706 ft | 199 kts | 7° |
| 2026-04-26 19:56 | 59.65268 | 18.30261 | 3430 ft | 199 kts | 7° |
| 2026-04-26 19:56 | 59.66622 | 18.30781 | 3189 ft | 198 kts | 7° |
| 2026-04-26 19:56 | 59.67968 | 18.31282 | 2953 ft | 196 kts | 5° |
| 2026-04-26 19:56 | 59.69282 | 18.30927 | 2635 ft | 193 kts | 333° |
| 2026-04-26 19:57 | 59.70121 | 18.28938 | 2498 ft | 196 kts | 290° |
| 2026-04-26 19:57 | 59.70128 | 18.26197 | 2492 ft | 206 kts | 262° |
| 2026-04-26 19:57 | 59.69621 | 18.23590 | 2484 ft | 200 kts | 248° |
| 2026-04-26 19:57 | 59.69209 | 18.21164 | 2497 ft | 177 kts | 271° |
| 2026-04-26 19:58 | 59.69044 | 18.18764 | 2436 ft | 177 kts | 266° |
| 2026-04-26 19:58 | 59.68741 | 18.16385 | 2152 ft | 179 kts | 261° |
| 2026-04-26 19:58 | 59.68429 | 18.14028 | 1879 ft | 174 kts | 264° |
| 2026-04-26 19:58 | 59.68149 | 18.11768 | 1626 ft | 164 kts | 263° |
| 2026-04-26 19:59 | 59.67880 | 18.09678 | 1415 ft | 148 kts | 263° |
| 2026-04-26 19:59 | 59.67637 | 18.07760 | 1205 ft | 141 kts | 263° |
| 2026-04-26 19:59 | 59.67401 | 18.05873 | 1017 ft | 142 kts | 262° |
| 2026-04-26 19:59 | 59.67164 | 18.04012 | 806 ft | 140 kts | 260° |
| 2026-04-26 20:00 | 59.66926 | 18.02145 | 606 ft | 140 kts | 260° |
| 2026-04-26 20:00 | 59.66689 | 18.00288 | 401 ft | 138 kts | 260° |
| 2026-04-26 20:00 | 59.66451 | 17.98425 | 235 ft | 138 kts | 259° |
| 2026-04-26 20:00 | 59.66226 | 17.96642 | 141 ft | 121 kts | 256° |
| 2026-04-26 20:01 | 59.66066 | 17.95367 | 140 ft | 70 kts | 255° |
| 2026-04-26 20:01 | 59.65965 | 17.94596 | 142 ft | 53 kts | 255° |
| 2026-04-26 20:01 | 59.65879 | 17.93936 | 142 ft | 39 kts | 254° |
| 2026-04-26 20:01 | 59.65804 | 17.93665 | 142 ft | 16 kts | 227° |
| 2026-04-26 20:02 | 59.65725 | 17.93505 | 142 ft | 14 kts | 225° |
| 2026-04-26 20:02 | 59.65671 | 17.93490 | 142 ft | 7 kts | 141° |
| 2026-04-26 20:02 | 59.65663 | 17.93625 | 142 ft | 14 kts | 82° |
| 2026-04-26 20:02 | 59.65675 | 17.93766 | 142 ft | 13 kts | 91° |
| 2026-04-26 20:03 | 59.65600 | 17.93854 | 142 ft | 13 kts | 164° |
| 2026-04-26 20:03 | 59.65496 | 17.93911 | 142 ft | 16 kts | 164° |
| 2026-04-26 20:03 | 59.65438 | 17.93937 | 142 ft | 4 kts | 178° |
| 2026-04-26 20:03 | 59.65430 | 17.93915 | 142 ft | 5 kts | 230° |
| 2026-04-26 20:04 | 59.65411 | 17.93840 | 142 ft | 3 kts | 248° |
| 2026-04-26 20:04 | 59.65403 | 17.93800 | 142 ft | 3 kts | 247° |
| 2026-04-26 20:04 | 59.65402 | 17.93798 | 142 ft | 0 kts | 247° |